createdAt,value
2023-05-10T21:56:26.547Z,50.92
2023-05-10T21:58:18.429Z,50.97
2023-05-10T22:00:11.308Z,50.67
2023-05-10T22:02:03.269Z,50.38
2023-05-10T22:03:54.644Z,50.05
2023-05-10T22:05:46.422Z,49.80
2023-05-10T22:07:38.461Z,49.66
2023-05-10T22:09:30.338Z,49.31
2023-05-10T22:11:22.103Z,49.26
2023-05-10T22:13:13.408Z,49.15
2023-05-10T22:17:00.443Z,49.02
2023-05-10T22:18:54.638Z,48.91
2023-05-10T22:20:46.558Z,48.76
2023-05-10T22:22:38.047Z,48.82
2023-05-10T22:24:30.714Z,48.54
2023-05-10T22:26:22.662Z,48.60
2023-05-10T22:28:14.104Z,48.61
2023-05-10T22:30:07.250Z,48.47
2023-05-10T22:31:58.844Z,48.48
2023-05-10T22:33:50.527Z,48.32
2023-05-10T22:35:42.147Z,48.64
2023-05-10T22:37:33.319Z,48.65
2023-05-10T22:39:24.877Z,48.69
2023-05-10T22:41:16.827Z,48.93
2023-05-10T22:43:08.368Z,48.76
2023-05-10T22:44:59.836Z,48.58
2023-05-10T22:46:51.903Z,48.69
2023-05-10T22:48:43.778Z,48.88
2023-05-10T22:50:37.136Z,48.92
2023-05-10T22:52:29.519Z,49.19
2023-05-10T22:54:20.866Z,48.88
2023-05-10T22:56:12.533Z,49.01
2023-05-10T22:58:03.854Z,48.96
2023-05-10T22:59:55.485Z,49.00
2023-05-10T23:01:48.951Z,49.09
2023-05-10T23:03:40.519Z,49.17
2023-05-10T23:05:32.322Z,49.07
2023-05-10T23:07:24.224Z,49.17
2023-05-10T23:09:15.649Z,49.19
2023-05-10T23:11:07.215Z,49.27
2023-05-10T23:12:58.985Z,49.25
2023-05-10T23:14:50.838Z,49.65
2023-05-10T23:16:42.538Z,49.71
2023-05-10T23:18:34.217Z,49.75
2023-05-10T23:20:26.380Z,49.82
2023-05-10T23:22:17.820Z,50.05
2023-05-10T23:24:09.305Z,50.31
2023-05-10T23:26:01.848Z,50.53
2023-05-10T23:27:53.587Z,50.46
2023-05-10T23:29:45.245Z,50.44
2023-05-10T23:31:37.414Z,50.58
2023-05-10T23:33:29.172Z,50.37
2023-05-10T23:35:20.818Z,50.66
2023-05-10T23:37:12.807Z,50.49
2023-05-10T23:39:04.897Z,50.48
2023-05-10T23:40:56.483Z,50.80
2023-05-10T23:42:48.249Z,50.85
2023-05-10T23:44:39.592Z,50.72
2023-05-10T23:46:31.336Z,50.86
2023-05-10T23:48:23.442Z,50.88
2023-05-10T23:50:15.206Z,51.05
2023-05-10T23:52:07.106Z,51.12
2023-05-10T23:53:59.307Z,51.09
2023-05-10T23:55:50.604Z,51.16
2023-05-10T23:57:41.892Z,51.23
2023-05-10T23:59:33.520Z,51.24
